createdAt,value
2022-10-29T00:04:54.446Z,10.90
2022-10-29T00:09:58.131Z,10.91
2022-10-29T00:15:01.967Z,10.90
2022-10-29T00:25:14.850Z,10.84
2022-10-29T00:30:18.165Z,10.81
2022-10-29T00:35:23.019Z,10.78
2022-10-29T00:40:26.477Z,10.77
2022-10-29T00:45:29.714Z,10.79
2022-10-29T00:50:32.964Z,10.83
2022-10-29T00:55:36.284Z,10.90
2022-10-29T01:00:39.611Z,10.94
2022-10-29T01:05:44.631Z,10.95
2022-10-29T01:11:00.250Z,10.97
2022-10-29T01:16:25.266Z,11.00
2022-10-29T01:22:01.121Z,11.05
2022-10-29T01:27:24.568Z,11.11
2022-10-29T01:32:50.545Z,11.15
2022-10-29T01:38:02.890Z,11.18
2022-10-29T01:43:15.845Z,11.19
2022-10-29T01:48:33.528Z,11.17
2022-10-29T01:53:37.762Z,11.14
2022-10-29T01:58:45.047Z,11.13
2022-10-29T02:04:03.827Z,11.12
2022-10-29T02:09:22.638Z,11.10
2022-10-29T02:14:30.496Z,11.10
2022-10-29T02:19:34.909Z,11.09
2022-10-29T02:24:38.285Z,11.04
2022-10-29T02:29:41.892Z,10.98
2022-10-29T02:34:45.186Z,10.94
2022-10-29T02:39:48.489Z,10.90
2022-10-29T02:44:51.694Z,10.86
2022-10-29T02:49:55.007Z,10.83
2022-10-29T02:54:58.286Z,10.81
2022-10-29T03:00:01.561Z,10.81
2022-10-29T03:05:05.704Z,10.79
2022-10-29T03:10:09.291Z,10.78
2022-10-29T03:15:12.499Z,10.78
2022-10-29T03:20:15.749Z,10.77
2022-10-29T03:25:19.028Z,10.77
2022-10-29T03:30:23.324Z,10.76
2022-10-29T03:35:26.676Z,10.70
2022-10-29T03:40:30.007Z,10.64
2022-10-29T03:45:33.165Z,10.56
2022-10-29T03:50:36.368Z,10.46
2022-10-29T03:55:39.634Z,10.36
2022-10-29T04:00:42.921Z,10.26
2022-10-29T04:05:46.196Z,10.16
2022-10-29T04:10:50.725Z,10.08
2022-10-29T04:15:55.415Z,10.00
2022-10-29T04:23:10.859Z,9.90
2022-10-29T04:31:50.002Z,9.75
2022-10-29T04:36:54.030Z,9.67
2022-10-29T04:41:57.281Z,9.56
2022-10-29T04:47:01.149Z,9.43
2022-10-29T04:52:04.628Z,9.32
2022-10-29T04:57:07.929Z,9.29
2022-10-29T05:02:14.954Z,9.22
2022-10-29T05:07:22.701Z,9.10
2022-10-29T05:12:25.963Z,9.09
2022-10-29T05:17:29.912Z,9.06
2022-10-29T05:22:33.658Z,9.03
2022-10-29T05:27:36.942Z,9.02
2022-10-29T05:32:42.005Z,8.99
2022-10-29T05:37:57.268Z,8.94
2022-10-29T05:43:01.034Z,8.89
2022-10-29T05:48:05.170Z,8.93
2022-10-29T05:53:11.855Z,9.00
2022-10-29T05:58:15.257Z,9.08
2022-10-29T06:03:23.777Z,9.18
2022-10-29T06:08:27.172Z,9.27
2022-10-29T06:13:31.115Z,9.28
2022-10-29T06:18:34.389Z,9.27
2022-10-29T06:23:37.912Z,9.37
2022-10-29T06:28:41.285Z,9.59
2022-10-29T06:33:44.582Z,9.90
2022-10-29T06:38:47.831Z,10.23
2022-10-29T06:43:51.221Z,10.54
2022-10-29T06:48:54.536Z,10.82
2022-10-29T06:53:57.821Z,11.06
2022-10-29T06:59:01.079Z,11.31
2022-10-29T07:04:04.465Z,11.57
2022-10-29T07:09:07.808Z,11.89
2022-10-29T07:14:14.824Z,12.26
2022-10-29T07:19:18.795Z,12.72
2022-10-29T07:24:22.201Z,13.21
2022-10-29T07:29:30.340Z,13.71
2022-10-29T07:34:35.100Z,14.12
2022-10-29T07:39:38.806Z,14.47
2022-10-29T07:44:45.119Z,14.77
2022-10-29T07:49:50.809Z,15.03
2022-10-29T07:54:54.358Z,15.30
2022-10-29T08:00:06.920Z,15.55
2022-10-29T08:05:21.063Z,15.78
2022-10-29T08:10:50.265Z,16.07
2022-10-29T08:16:04.120Z,16.37
2022-10-29T08:21:11.711Z,16.56
2022-10-29T08:26:15.349Z,16.75
2022-10-29T08:31:29.126Z,16.93
2022-10-29T08:36:35.493Z,17.20
2022-10-29T08:41:59.984Z,17.50
2022-10-29T08:47:07.752Z,17.81
2022-10-29T08:52:24.951Z,18.07
2022-10-29T08:57:42.333Z,18.26
2022-10-29T09:03:00.592Z,18.33
2022-10-29T09:09:10.031Z,18.37
2022-10-29T09:14:36.805Z,18.54
2022-10-29T09:19:45.666Z,18.76
2022-10-29T09:25:08.931Z,19.10
2022-10-29T09:30:21.245Z,19.44
2022-10-29T09:35:53.934Z,19.64
2022-10-29T09:41:01.250Z,19.84
2022-10-29T09:46:10.078Z,20.04
2022-10-29T09:51:34.829Z,20.25
2022-10-29T09:56:42.967Z,20.49
2022-10-29T10:01:47.899Z,20.66
2022-10-29T10:07:11.186Z,20.71
2022-10-29T10:12:14.475Z,20.64
2022-10-29T10:17:17.688Z,20.55
2022-10-29T10:22:24.551Z,20.46
2022-10-29T10:27:31.772Z,20.40
2022-10-29T10:32:35.094Z,20.39
2022-10-29T10:37:38.563Z,20.52
2022-10-29T10:42:47.324Z,20.68
2022-10-29T10:47:58.591Z,20.83
2022-10-29T10:53:05.851Z,20.94
2022-10-29T10:58:20.500Z,21.06
2022-10-29T11:03:39.494Z,21.21
2022-10-29T11:08:53.627Z,21.37
2022-10-29T11:14:10.299Z,21.60
2022-10-29T11:19:36.751Z,21.82
2022-10-29T11:24:50.903Z,21.95
2022-10-29T11:29:58.363Z,22.00
2022-10-29T11:35:09.609Z,21.94
2022-10-29T11:40:24.880Z,21.84
2022-10-29T11:46:09.308Z,21.75
2022-10-29T11:51:29.606Z,21.68
2022-10-29T11:57:16.597Z,21.68
2022-10-29T12:03:03.527Z,21.74
2022-10-29T12:08:30.861Z,21.89
2022-10-29T12:14:04.879Z,21.97
2022-10-29T12:19:29.008Z,22.18
2022-10-29T12:25:10.522Z,22.28
2022-10-29T12:30:18.668Z,22.31
2022-10-29T12:35:40.336Z,22.28
2022-10-29T12:40:45.880Z,22.23
2022-10-29T12:46:19.189Z,22.08
2022-10-29T12:51:38.125Z,22.13
2022-10-29T12:56:43.926Z,22.21
2022-10-29T13:02:10.395Z,22.34
2022-10-29T13:13:01.899Z,22.28
2022-10-29T13:18:20.596Z,22.12
2022-10-29T13:23:27.865Z,21.93
2022-10-29T13:28:38.498Z,21.79
2022-10-29T13:33:42.438Z,21.77
2022-10-29T13:39:05.999Z,21.87
2022-10-29T13:44:22.914Z,21.99
2022-10-29T13:49:42.901Z,21.89
2022-10-29T13:55:03.013Z,21.67
2022-10-29T14:00:11.329Z,21.47
2022-10-29T14:05:32.380Z,21.26
2022-10-29T14:10:42.020Z,21.06
2022-10-29T14:16:08.016Z,20.88
2022-10-29T14:21:30.189Z,20.68
2022-10-29T14:26:35.946Z,20.51
2022-10-29T14:31:39.617Z,20.34
2022-10-29T14:36:46.171Z,20.17
2022-10-29T14:41:50.891Z,20.03
2022-10-29T14:46:58.750Z,19.92
2022-10-29T14:52:08.451Z,19.81
2022-10-29T14:57:15.498Z,19.68
2022-10-29T15:02:37.554Z,19.53
2022-10-29T15:07:41.992Z,19.35
2022-10-29T15:12:45.924Z,19.13
2022-10-29T15:18:05.886Z,18.86
2022-10-29T15:23:25.461Z,18.57
2022-10-29T15:28:31.298Z,18.32
2022-10-29T15:33:54.160Z,18.06
2022-10-29T15:39:21.210Z,17.82
2022-10-29T15:44:36.607Z,17.58
2022-10-29T15:49:42.344Z,17.35
2022-10-29T15:54:49.811Z,17.12
2022-10-29T15:59:57.587Z,16.91
2022-10-29T16:05:04.597Z,16.72
2022-10-29T16:10:17.452Z,16.53
2022-10-29T16:20:31.694Z,16.28
2022-10-29T16:25:36.443Z,16.26
2022-10-29T16:30:42.287Z,16.26
2022-10-29T16:35:46.089Z,16.21
2022-10-29T16:40:51.728Z,16.16
2022-10-29T16:46:02.535Z,16.13
2022-10-29T16:51:26.594Z,16.09
2022-10-29T16:56:38.934Z,16.05
2022-10-29T17:01:56.844Z,16.02
2022-10-29T17:07:42.147Z,15.93
2022-10-29T17:13:09.456Z,15.83
2022-10-29T17:18:48.713Z,15.77
2022-10-29T17:24:13.727Z,15.78
2022-10-29T17:29:30.306Z,15.84
2022-10-29T17:34:48.118Z,15.87
2022-10-29T17:40:28.043Z,15.85
2022-10-29T17:45:38.551Z,15.79
2022-10-29T17:50:58.199Z,15.75
2022-10-29T17:56:08.660Z,15.74
2022-10-29T18:01:13.807Z,15.74
2022-10-29T18:06:17.470Z,15.71
2022-10-29T18:11:26.853Z,15.67
2022-10-29T18:16:44.066Z,15.65
2022-10-29T18:21:51.968Z,15.64
2022-10-29T18:27:18.864Z,15.65
2022-10-29T18:32:56.834Z,15.67
2022-10-29T18:38:30.817Z,15.67
2022-10-29T18:44:04.954Z,15.64
2022-10-29T18:55:19.255Z,15.59
2022-10-29T19:00:44.902Z,15.59
2022-10-29T19:06:13.455Z,15.61
2022-10-29T19:12:18.782Z,15.63
2022-10-29T19:18:10.738Z,15.61
2022-10-29T19:23:27.000Z,15.57
2022-10-29T19:28:42.695Z,15.52
2022-10-29T19:33:50.281Z,15.54
2022-10-29T19:38:58.775Z,15.59
2022-10-29T19:44:06.072Z,16.45
2022-10-29T19:49:37.027Z,16.55
2022-10-29T19:54:53.911Z,16.05
2022-10-29T20:00:36.372Z,15.73
2022-10-29T20:05:49.440Z,15.65
2022-10-29T20:11:31.481Z,16.37
2022-10-29T20:16:56.197Z,15.93
2022-10-29T20:22:31.755Z,15.55
2022-10-29T20:27:59.229Z,15.34
2022-10-29T20:39:42.569Z,15.08
2022-10-29T20:45:16.987Z,15.01
2022-10-29T20:51:00.089Z,14.96
2022-10-29T20:56:46.767Z,14.90
2022-10-29T21:07:39.096Z,14.77
2022-10-29T21:19:31.955Z,14.70
2022-10-29T21:24:54.216Z,14.65
2022-10-29T21:30:13.441Z,14.62
2022-10-29T21:35:54.205Z,14.55
2022-10-29T21:41:03.125Z,14.50
2022-10-29T21:46:11.162Z,14.47
2022-10-29T21:51:26.324Z,14.37
2022-10-29T21:56:49.785Z,14.22
2022-10-29T22:02:12.306Z,14.09
2022-10-29T22:07:46.300Z,14.03
2022-10-29T22:13:09.185Z,13.91
2022-10-29T22:18:35.672Z,13.71
2022-10-29T22:23:46.804Z,13.47
2022-10-29T22:28:50.852Z,13.25
2022-10-29T22:33:58.683Z,13.07
2022-10-29T22:39:10.495Z,12.95
2022-10-29T22:44:19.631Z,12.86
2022-10-29T22:49:23.072Z,12.84
2022-10-29T22:54:31.488Z,12.85
2022-10-29T22:59:35.975Z,12.86
2022-10-29T23:04:44.968Z,12.84
2022-10-29T23:09:51.116Z,12.77
2022-10-29T23:14:54.495Z,12.67
2022-10-29T23:20:05.299Z,12.59
2022-10-29T23:25:09.143Z,12.51
2022-10-29T23:30:15.049Z,12.42
2022-10-29T23:40:54.867Z,12.25
2022-10-29T23:46:04.116Z,12.16
2022-10-29T23:51:07.495Z,12.07
2022-10-29T23:56:18.447Z,12.01
